Alburtis, Pennsylvania
Current Conditions -  °F | °C
As of 9:55 AM on Friday 19 Dec 2014 (Local Time) from KXLL Reporting Station
Overcast Overcast  
Wind Chill: 28°   Ceiling: 2900
Heat Index: 36°   Visibility: 10mi
Dew Point: 25°   Wind: 12mph
Humidity: 65%   Direction: 330°NNW
Pressure: 30.1"   Gusts: 16mph
Location:  40.51°N, 75.6°W
Report Text: KXLL 191455Z AUTO 33010G14KT 10SM OVC029 02/M04 A3010 RMK AO2
Loading
Personal Weather Stations






























Interactive Weather Map New forecast layout! Learn more

10-Day Weather Forecast

Advertisements
Track Severe Weather on mobile